Terminal Aerodrome Forecast
Issued by NWS Wakefield, VA

Home | Current Version | Previous Version | Text Only | Print | Product List | Glossary On
Versions: 1 2 3 4 5 6 7 8 9 10 11 12 13 14 15 16 17
000
FTUS41 KAKQ 220700 AAA
TAFSBY
TAF AMD
KSBY 220709Z 2207/2306 VRB03KT P6SM OVC050
     FM221400 06008KT 4SM -RA BR OVC030
     FM221800 06006KT 2SM -RA BR OVC008
     FM222200 06007KT 1SM -RA BR OVC004=

USA.gov is the U.S. government's official web portal to all federal, state and local government web resources and services.